METAR Data
IDs: Format: Raw Decoded Include TAF

Data at: 2121 UTC 18 Apr 2021

KHWO 182053Z 15011KT 10SM FEW055 SCT070 31/22 A2988 RMK AO2 SLP119 T03060217 56017
KHWO 181953Z 14015KT 10SM FEW044 SCT065 31/22 A2989 RMK AO2 WSHFT 1840 SLP122 T03110217
KHWO 181900Z 14013KT 10SM SCT045 SCT060 BKN075 30/21 A2991 RMK AO2 WSHFT 1840 T03000211
KHWO 181853Z 14014G18KT 10SM SCT045 SCT070 30/21 A2991 RMK AO2 WSHFT 1838 SLP129 T03000211
KHWO 181753Z 17008KT 10SM SCT041 32/21 A2993 RMK AO2 SLP136 T03170206 10317 20239 58018
KHWO 181653Z 16010G20KT 10SM BKN042 31/21 A2995 RMK AO2 SLP140 T03060211
KHWO 181553Z 21007KT 10SM FEW038 29/20 A2997 RMK AO2 SLP150 T02940200
KHWO 181453Z 23009KT 10SM CLR 29/19 A2998 RMK AO2 SLP153 T02890194 50000
KHWO 181353Z 20004KT 10SM CLR 27/19 A2999 RMK AO2 SLP157 T02670189
KHWO 181253Z 10003KT 10SM CLR 26/19 A2999 RMK AO2 SLP154 T02610189
KHWO 181153Z 00000KT 10SM CLR 24/21 A2998 RMK AO2 SLP153 T02390206 10239 20222 53012
KHWO 181053Z 00000KT 10SM BKN042 23/20 A2997 RMK AO2 SLP149 T02280200
KHWO 180953Z AUTO 00000KT 10SM FEW044 SCT060 23/20 A2996 RMK AO2 SLP145 T02330200
KHWO 180853Z AUTO 22004KT 10SM SCT043 23/20 A2995 RMK AO2 SLP142 T02280200 53002
KHWO 180753Z AUTO 20004KT 10SM BKN040 BKN055 23/20 A2995 RMK AO2 SLP140 T02280200
KHWO 180653Z AUTO 20003KT 10SM CLR 23/19 A2995 RMK AO2 SLP140 T02280194
KHWO 180553Z AUTO 18004KT 10SM CLR 23/19 A2994 RMK AO2 SLP139 T02330194 10278 20228 53005
KHWO 180453Z AUTO 27004KT 10SM CLR 23/19 A2993 RMK AO2 SLP136 T02330194 403220211
KHWO 180353Z AUTO 29006KT 10SM CLR 23/19 A2993 RMK AO2 SLP136 T02330189
KHWO 180253Z AUTO 27007KT 10SM CLR 24/18 A2993 RMK AO2 SLP134 T02440183 51015
KHWO 180153Z AUTO 27007KT 10SM CLR 25/17 A2992 RMK AO2 SLP132 T02500172
KHWO 180053Z 23007KT 10SM CLR 26/17 A2990 RMK AO2 SLP124 T02610167
KHWO 172353Z 23011KT 10SM CLR 28/18 A2988 RMK AO2 SLP119 T02780178 10322 20278 53006
KHWO 172253Z 23015KT 10SM CLR 29/17 A2988 RMK AO2 SLP117 T02890172
KHWO 172153Z 24017KT 10SM CLR 31/17 A2987 RMK AO2 SLP113 T03060172
KHWO 172053Z 24015G22KT 10SM CLR 32/17 A2987 RMK AO2 SLP113 T03170172 58015
KHWO 171953Z 21010G20KT 10SM CLR 32/18 A2988 RMK AO2 SLP117 T03170178
KHWO 171853Z 22015G20KT 10SM CLR 32/17 A2990 RMK AO2 SLP125 T03170172
KHWO 171753Z 25015G24KT 10SM FEW020 32/17 A2991 RMK AO2 SLP128 T03220172 10322 20228 58018
KHWO 171653Z 21011KT 10SM FEW046 31/18 A2992 RMK AO2 SLP132 T03060183
KHWO 171553Z 26012KT 10SM FEW037 29/19 A2996 RMK AO2 SLP143 T02890189
KHWO 171453Z 26008KT 10SM FEW030 SCT035 28/20 A2996 RMK AO2 SLP146 T02830200 53015
KHWO 171436Z 26010KT 10SM SCT025 BKN031 28/20 A2996 RMK AO2 T02780200
KHWO 171405Z 24010KT 10SM SCT023 BKN029 27/21 A2994 RMK AO2 T02670206
KHWO 171353Z 23008KT 10SM SCT022 SCT029 27/21 A2994 RMK AO2 SLP137 T02670206
KHWO 171253Z 20005KT 10SM CLR 25/21 A2992 RMK AO2 SLP133 T02500206
KHWO 171153Z 16003KT 10SM CLR 23/20 A2992 RMK AO2 SLP131 T02280200 10233 20211 53014
KHWO 171053Z 20003KT 10SM CLR 22/19 A2990 RMK AO2 SLP125 T02170194
KHWO 170953Z 00000KT 10SM CLR 22/19 A2989 RMK AO2 SLP122 T02170194